Terminal Aerodrome Forecast
Issued by NWS

Current Version | Previous Version | Text Only | Print | Product List | Glossary On
Versions: 1 2 3 4 5 6 7 8 9 10 11 12 13 14 15 16 17 18 19 20 21
000
FTUS43 KICT 291731
TAFCNU
TAF
KCNU 291731Z 2918/3018 14017G26KT P6SM SCT015 BKN030
     FM292000 16014G23KT P6SM VCTS SCT015 BKN035CB
     FM300200 11006KT P6SM -RA BKN060
     FM300600 07006KT P6SM VCSH BKN020
     FM300700 09007KT P6SM VCSH BKN008
     FM301100 32008KT 4SM BR VCSH BKN003=

USA.gov is the U.S. government's official web portal to all federal, state and local government web resources and services.